Time;durP1;ratioP1;P1;durP2;ratioP2;P2;SDS_P1;SDS_P2;PMS_P1;PMS_P2;Temp;Humidity;BMP_temperature;BMP_pressure;BME280_temperature;BME280_humidity;BME280_pressure;Samples;Min_cycle;Max_cycle;Signal;HPM_P1;HPM_P2
2021/03/08 00:02:11;;;;;;;5.23;3.93;;;;;;;;;;5062216;28;20283;-83
2021/03/08 00:04:37;;;;;;;4.97;3.80;;;;;;;;;;5051927;28;20199;-83
2021/03/08 00:07:03;;;;;;;4.47;4.00;;;;;;;;;;5052288;28;20464;-83
2021/03/08 00:09:29;;;;;;;6.37;5.00;;;;;;;;;;5042980;28;20250;-83
2021/03/08 00:11:55;;;;;;;6.20;4.70;;;;;;;;;;5061188;28;20178;-83
2021/03/08 00:14:21;;;;;;;7.47;4.63;;;;;;;;;;5052020;28;20226;-83
2021/03/08 00:16:48;;;;;;;6.27;4.60;;;;;;;;;;5045519;28;20268;-83
2021/03/08 00:19:14;;;;;;;6.33;4.73;;;;;;;;;;5042964;28;20212;-83
2021/03/08 00:21:40;;;;;;;5.93;4.87;;;;;;;;;;5054716;28;20658;-83
2021/03/08 00:24:06;;;;;;;6.77;4.70;;;;;;;;;;5054764;28;20188;-82
2021/03/08 00:26:32;;;;;;;5.03;4.33;;;;;;;;;;5072133;28;20207;-83
2021/03/08 00:28:58;;;;;;;5.57;4.17;;;;;;;;;;5054920;28;20177;-82
2021/03/08 00:31:24;;;;;;;5.53;4.93;;;;;;;;;;5073741;28;20628;-82
2021/03/08 00:33:51;;;;;;;5.93;4.53;;;;;;;;;;5047929;28;20719;-82
2021/03/08 00:36:17;;;;;;;7.07;5.37;;;;;;;;;;5048263;28;20197;-82
2021/03/08 00:38:43;;;;;;;6.63;5.10;;;;;;;;;;5056283;28;20180;-83
2021/03/08 00:41:09;;;;;;;6.87;5.43;;;;;;;;;;5055753;28;20193;-83
2021/03/08 00:43:35;;;;;;;5.43;4.33;;;;;;;;;;5056608;28;20176;-83
2021/03/08 00:46:01;;;;;;;7.17;5.13;;;;;;;;;;5044067;28;20270;-83
2021/03/08 00:48:27;;;;;;;6.17;4.53;;;;;;;;;;5051643;28;20180;-83
2021/03/08 00:50:53;;;;;;;6.60;5.17;;;;;;;;;;5036355;28;20331;-83
2021/03/08 00:53:19;;;;;;;6.23;5.13;;;;;;;;;;5037160;28;20231;-83
2021/03/08 00:55:45;;;;;;;5.80;4.97;;;;;;;;;;5035026;28;20185;-83
2021/03/08 00:58:11;;;;;;;6.57;5.03;;;;;;;;;;5036519;28;20177;-83
2021/03/08 01:00:38;;;;;;;6.13;4.83;;;;;;;;;;5036695;28;20266;-83
2021/03/08 01:03:04;;;;;;;6.83;5.17;;;;;;;;;;5054339;28;20181;-82
2021/03/08 01:05:30;;;;;;;6.20;4.57;;;;;;;;;;5035453;28;20184;-83
2021/03/08 01:07:57;;;;;;;6.80;5.00;;;;;;;;;;5035728;28;20185;-83
2021/03/08 01:10:26;;;;;;;7.33;5.67;;;;;;;;;;5035423;28;20208;-83
2021/03/08 01:12:52;;;;;;;6.60;4.97;;;;;;;;;;5035511;28;20173;-82
2021/03/08 01:15:18;;;;;;;7.63;5.10;;;;;;;;;;5035323;28;20567;-82
2021/03/08 01:17:44;;;;;;;7.20;5.50;;;;;;;;;;5053317;28;20185;-82
2021/03/08 01:20:12;;;;;;;7.53;5.90;;;;;;;;;;5035048;28;20180;-82
2021/03/08 01:22:38;;;;;;;8.00;5.37;;;;;;;;;;5032493;28;20637;-83
2021/03/08 01:25:10;;;;;;;6.30;5.10;;;;;;;;;;5035358;28;20205;-82
2021/03/08 01:27:36;;;;;;;6.00;4.90;;;;;;;;;;5025121;28;20181;-82
2021/03/08 01:30:04;;;;;;;7.20;5.37;;;;;;;;;;5033756;28;20186;-82
2021/03/08 01:32:30;;;;;;;6.67;5.27;;;;;;;;;;5034652;28;20189;-83
2021/03/08 01:34:56;;;;;;;6.60;5.27;;;;;;;;;;5034553;28;20200;-83
2021/03/08 01:37:22;;;;;;;6.77;5.33;;;;;;;;;;5035230;28;20794;-82
2021/03/08 01:39:48;;;;;;;8.50;5.43;;;;;;;;;;5035469;28;20239;-82
2021/03/08 01:42:14;;;;;;;10.33;6.37;;;;;;;;;;5035086;28;20207;-82
2021/03/08 01:44:40;;;;;;;7.07;5.87;;;;;;;;;;5034272;28;20177;-83
2021/03/08 01:47:06;;;;;;;8.03;5.43;;;;;;;;;;5035586;28;20180;-83
2021/03/08 01:49:32;;;;;;;8.50;6.20;;;;;;;;;;5024890;28;20213;-83
2021/03/08 01:51:58;;;;;;;7.73;6.30;;;;;;;;;;5034768;28;20173;-82
2021/03/08 01:54:24;;;;;;;7.43;5.47;;;;;;;;;;5050023;28;20185;-83
2021/03/08 01:56:50;;;;;;;7.37;5.33;;;;;;;;;;5051718;28;20260;-82
2021/03/08 01:59:16;;;;;;;7.63;5.80;;;;;;;;;;5048768;28;20441;-83
2021/03/08 02:01:42;;;;;;;7.83;6.17;;;;;;;;;;5051938;28;20205;-83
2021/03/08 02:04:09;;;;;;;7.83;6.13;;;;;;;;;;5041945;28;20182;-82
2021/03/08 02:06:35;;;;;;;6.60;5.40;;;;;;;;;;5035885;28;20545;-83
2021/03/08 02:09:02;;;;;;;6.87;5.40;;;;;;;;;;5045743;28;20177;-83
2021/03/08 02:11:28;;;;;;;6.13;4.83;;;;;;;;;;5033153;28;20667;-83
2021/03/08 02:14:13;;;;;;;10.03;7.33;;;;;;;;;;5049670;28;20181;-83
2021/03/08 02:16:45;;;;;;;7.63;6.33;;;;;;;;;;5044958;28;20196;-83
2021/03/08 02:19:25;;;;;;;7.47;5.60;;;;;;;;;;5031635;28;20185;-82
2021/03/08 02:22:10;;;;;;;8.23;6.50;;;;;;;;;;5033949;28;20276;-83
2021/03/08 02:24:54;;;;;;;6.97;5.93;;;;;;;;;;5032976;28;20181;-83
2021/03/08 02:27:39;;;;;;;8.87;6.63;;;;;;;;;;5044981;28;20214;-83
2021/03/08 02:30:24;;;;;;;8.93;6.20;;;;;;;;;;5050661;28;20169;-83
2021/03/08 02:32:51;;;;;;;9.57;7.47;;;;;;;;;;5047755;28;20189;-83
2021/03/08 02:35:21;;;;;;;8.83;7.40;;;;;;;;;;5047075;28;20190;-83
2021/03/08 02:37:50;;;;;;;8.50;7.10;;;;;;;;;;5021513;28;20194;-83
2021/03/08 02:40:18;;;;;;;8.37;7.03;;;;;;;;;;5049305;28;20239;-82
2021/03/08 02:42:47;;;;;;;10.47;7.87;;;;;;;;;;5049314;28;20234;-82
2021/03/08 02:45:15;;;;;;;12.90;8.43;;;;;;;;;;5048329;28;20173;-83
2021/03/08 02:47:46;;;;;;;10.70;7.07;;;;;;;;;;5034439;28;20629;-83
2021/03/08 02:50:13;;;;;;;11.07;8.07;;;;;;;;;;5052634;28;20227;-83
2021/03/08 02:52:41;;;;;;;10.43;8.63;;;;;;;;;;5052257;28;20519;-82
2021/03/08 02:55:09;;;;;;;12.37;9.33;;;;;;;;;;5049087;28;20623;-83
2021/03/08 02:57:38;;;;;;;10.53;8.00;;;;;;;;;;5051685;28;20177;-82
2021/03/08 03:00:06;;;;;;;17.60;9.37;;;;;;;;;;5071275;28;20256;-82
2021/03/08 03:02:32;;;;;;;12.97;9.70;;;;;;;;;;5052587;28;20203;-83
2021/03/08 03:04:59;;;;;;;13.87;9.57;;;;;;;;;;5049650;28;20177;-82
2021/03/08 03:07:27;;;;;;;11.10;8.13;;;;;;;;;;5033687;28;20180;-82
2021/03/08 03:09:53;;;;;;;12.47;9.13;;;;;;;;;;5045324;28;20228;-82
2021/03/08 03:12:19;;;;;;;12.83;9.90;;;;;;;;;;5071150;28;20255;-82
2021/03/08 03:14:47;;;;;;;13.80;9.87;;;;;;;;;;5052776;28;20176;-83
2021/03/08 03:17:14;;;;;;;11.87;9.13;;;;;;;;;;5040807;28;20609;-83
2021/03/08 03:19:43;;;;;;;11.67;9.03;;;;;;;;;;5049110;28;20181;-83
2021/03/08 03:22:10;;;;;;;14.63;9.87;;;;;;;;;;5068005;28;20193;-82
2021/03/08 03:24:37;;;;;;;13.63;10.33;;;;;;;;;;5052466;28;20176;-82
2021/03/08 03:27:04;;;;;;;15.83;9.67;;;;;;;;;;5052621;28;20306;-83
2021/03/08 03:29:37;;;;;;;14.80;11.23;;;;;;;;;;5042464;28;20180;-83
2021/03/08 03:32:04;;;;;;;16.07;11.30;;;;;;;;;;5052281;28;20313;-83
2021/03/08 03:34:30;;;;;;;13.73;10.27;;;;;;;;;;5052467;28;20180;-83
2021/03/08 03:36:59;;;;;;;14.90;10.97;;;;;;;;;;5052336;28;20225;-82
2021/03/08 03:39:25;;;;;;;13.30;10.27;;;;;;;;;;5041613;28;20243;-83
2021/03/08 03:41:51;;;;;;;16.70;13.07;;;;;;;;;;5036778;28;20703;-82
2021/03/08 03:44:17;;;;;;;16.43;10.60;;;;;;;;;;5059140;28;20235;-82
2021/03/08 03:46:44;;;;;;;19.00;11.37;;;;;;;;;;5048890;28;20245;-82
2021/03/08 03:49:11;;;;;;;13.67;11.03;;;;;;;;;;5052308;28;20307;-83
2021/03/08 03:51:38;;;;;;;15.80;11.53;;;;;;;;;;5052474;28;20184;-83
2021/03/08 03:54:04;;;;;;;15.53;11.47;;;;;;;;;;5048247;28;20215;-83
2021/03/08 03:56:31;;;;;;;15.60;11.07;;;;;;;;;;5073300;28;20593;-83
2021/03/08 03:59:15;;;;;;;19.17;11.90;;;;;;;;;;5047450;28;20181;-82
2021/03/08 04:01:48;;;;;;;15.43;10.60;;;;;;;;;;5044801;28;20204;-83
2021/03/08 04:04:23;;;;;;;16.97;11.50;;;;;;;;;;5054518;28;20176;-83
2021/03/08 04:06:51;;;;;;;15.40;11.90;;;;;;;;;;5055703;28;20171;-83
2021/03/08 04:09:23;;;;;;;18.70;12.37;;;;;;;;;;5053967;28;20184;-82
2021/03/08 04:11:54;;;;;;;18.03;12.57;;;;;;;;;;5055860;28;20210;-82
2021/03/08 04:14:22;;;;;;;18.33;12.33;;;;;;;;;;5051624;28;20670;-82
2021/03/08 04:16:49;;;;;;;18.37;11.67;;;;;;;;;;5055702;28;20238;-82
2021/03/08 04:19:16;;;;;;;15.20;11.70;;;;;;;;;;5053685;28;20601;-82
2021/03/08 04:21:43;;;;;;;15.63;11.23;;;;;;;;;;5039492;28;20446;-83
2021/03/08 04:24:10;;;;;;;18.50;12.43;;;;;;;;;;5055466;28;20180;-82
2021/03/08 04:26:40;;;;;;;18.20;12.90;;;;;;;;;;5051115;28;20183;-83
2021/03/08 04:29:07;;;;;;;16.10;11.67;;;;;;;;;;5073679;28;20169;-83
2021/03/08 04:31:34;;;;;;;15.73;12.33;;;;;;;;;;5056969;28;20273;-83
2021/03/08 04:34:00;;;;;;;18.27;12.40;;;;;;;;;;5069147;28;20200;-83
2021/03/08 04:36:27;;;;;;;18.67;12.77;;;;;;;;;;5055963;28;20229;-83
2021/03/08 04:38:53;;;;;;;18.53;13.83;;;;;;;;;;5045540;28;20192;-83
2021/03/08 04:41:20;;;;;;;17.03;12.57;;;;;;;;;;5036396;28;20208;-83
2021/03/08 04:43:46;;;;;;;18.03;13.53;;;;;;;;;;5047009;28;20193;-82
2021/03/08 04:46:12;;;;;;;14.03;11.37;;;;;;;;;;5042365;28;20185;-83
2021/03/08 04:48:38;;;;;;;18.27;13.27;;;;;;;;;;5037030;28;20181;-82
2021/03/08 04:51:05;;;;;;;20.70;14.13;;;;;;;;;;5048974;28;20693;-82
2021/03/08 04:53:31;;;;;;;18.27;12.37;;;;;;;;;;5050604;28;20579;-82
2021/03/08 04:55:58;;;;;;;16.93;12.23;;;;;;;;;;5055784;28;20212;-82
2021/03/08 04:58:24;;;;;;;17.10;12.17;;;;;;;;;;5053144;28;20588;-82
2021/03/08 05:00:50;;;;;;;16.37;12.43;;;;;;;;;;5054834;28;20196;-82
2021/03/08 05:03:17;;;;;;;18.50;14.00;;;;;;;;;;5054292;28;20512;-83
2021/03/08 05:05:44;;;;;;;19.77;13.70;;;;;;;;;;5050853;28;20173;-82
2021/03/08 05:08:12;;;;;;;20.10;13.80;;;;;;;;;;5053984;28;20200;-83
2021/03/08 05:10:38;;;;;;;16.27;12.80;;;;;;;;;;5050647;28;20196;-82
2021/03/08 05:13:07;;;;;;;17.17;13.00;;;;;;;;;;5052049;28;20183;-82
2021/03/08 05:15:34;;;;;;;19.40;13.00;;;;;;;;;;5071454;28;20187;-83
2021/03/08 05:18:02;;;;;;;17.90;12.80;;;;;;;;;;5072020;28;20168;-82
2021/03/08 05:20:28;;;;;;;18.30;12.53;;;;;;;;;;5046487;28;20461;-83
2021/03/08 05:22:54;;;;;;;18.77;12.10;;;;;;;;;;5040378;28;20180;-82
2021/03/08 05:25:21;;;;;;;19.17;12.93;;;;;;;;;;5068439;28;20180;-83
2021/03/08 05:27:48;;;;;;;18.17;12.53;;;;;;;;;;5048302;28;20300;-82
2021/03/08 05:30:18;;;;;;;18.23;12.40;;;;;;;;;;5047814;28;20185;-82
2021/03/08 05:32:50;;;;;;;20.53;12.63;;;;;;;;;;5052702;28;20615;-83
2021/03/08 05:35:17;;;;;;;19.77;13.47;;;;;;;;;;5072238;28;20176;-83
2021/03/08 05:37:43;;;;;;;21.63;13.77;;;;;;;;;;5050735;28;20173;-83
2021/03/08 05:40:26;;;;;;;18.57;13.40;;;;;;;;;;5068748;28;20180;-82
2021/03/08 05:43:00;;;;;;;18.10;13.27;;;;;;;;;;5054380;28;20205;-83
2021/03/08 05:45:27;;;;;;;18.40;12.97;;;;;;;;;;5052825;28;20184;-83
2021/03/08 05:48:12;;;;;;;17.33;12.77;;;;;;;;;;5049241;28;20255;-83
2021/03/08 05:50:48;;;;;;;16.57;12.23;;;;;;;;;;5060069;28;20749;-84
2021/03/08 05:53:23;;;;;;;17.80;12.57;;;;;;;;;;5052150;28;20182;-83
2021/03/08 05:55:49;;;;;;;19.33;13.30;;;;;;;;;;5054136;28;20172;-84
2021/03/08 05:58:25;;;;;;;17.93;12.53;;;;;;;;;;5051347;28;20510;-84
2021/03/08 06:01:12;;;;;;;17.90;13.07;;;;;;;;;;5053737;28;20199;-84
2021/03/08 06:03:44;;;;;;;19.27;13.20;;;;;;;;;;5040256;28;20632;-84
2021/03/08 06:06:22;;;;;;;18.73;12.97;;;;;;;;;;5041318;28;20173;-84
2021/03/08 06:08:48;;;;;;;19.27;13.17;;;;;;;;;;5053812;28;20419;-84
2021/03/08 06:11:19;;;;;;;19.83;13.10;;;;;;;;;;5054779;28;20449;-84
2021/03/08 06:13:58;;;;;;;16.80;12.73;;;;;;;;;;5054798;28;20180;-85
2021/03/08 06:16:25;;;;;;;19.10;13.63;;;;;;;;;;5068280;28;20226;-84
2021/03/08 06:18:51;;;;;;;20.67;14.57;;;;;;;;;;5051425;28;20948;-84
2021/03/08 06:21:17;;;;;;;22.80;14.03;;;;;;;;;;5043565;28;20215;-84
2021/03/08 06:23:44;;;;;;;20.87;14.60;;;;;;;;;;5034632;28;20469;-84
2021/03/08 06:26:11;;;;;;;17.67;12.93;;;;;;;;;;5050300;28;20252;-84
2021/03/08 06:28:38;;;;;;;18.27;13.30;;;;;;;;;;5052553;28;20522;-84
2021/03/08 06:31:04;;;;;;;17.70;12.73;;;;;;;;;;5041192;28;20526;-85
2021/03/08 06:33:30;;;;;;;21.87;15.00;;;;;;;;;;5054146;28;20411;-85
2021/03/08 06:35:58;;;;;;;16.90;12.40;;;;;;;;;;5038593;28;20447;-84
2021/03/08 06:38:24;;;;;;;19.53;14.23;;;;;;;;;;5052113;28;20930;-84
2021/03/08 06:40:50;;;;;;;19.07;12.93;;;;;;;;;;5040331;28;20443;-84
2021/03/08 06:43:16;;;;;;;18.07;13.07;;;;;;;;;;5063781;28;20423;-84
2021/03/08 06:45:42;;;;;;;19.13;13.67;;;;;;;;;;5054655;28;20411;-81
2021/03/08 06:48:11;;;;;;;18.77;12.73;;;;;;;;;;5051220;28;20547;-84
2021/03/08 06:50:38;;;;;;;19.83;13.63;;;;;;;;;;5049590;28;20486;-85
2021/03/08 06:53:04;;;;;;;20.00;14.30;;;;;;;;;;5065980;28;20411;-85
2021/03/08 06:55:30;;;;;;;19.30;13.97;;;;;;;;;;5065251;28;20471;-84
2021/03/08 06:58:16;;;;;;;18.43;13.73;;;;;;;;;;5064862;28;20419;-84
2021/03/08 07:00:42;;;;;;;19.13;13.23;;;;;;;;;;5065472;28;20459;-86
2021/03/08 07:03:28;;;;;;;19.17;13.70;;;;;;;;;;5065417;28;20426;-85
2021/03/08 07:05:54;;;;;;;19.50;13.87;;;;;;;;;;5056520;28;20419;-85
2021/03/08 07:08:24;;;;;;;24.10;16.40;;;;;;;;;;5049678;28;20886;-81
2021/03/08 07:10:50;;;;;;;27.50;17.63;;;;;;;;;;5042780;28;20811;-85
2021/03/08 07:13:16;;;;;;;22.00;15.10;;;;;;;;;;5060803;28;20939;-85
2021/03/08 07:16:02;;;;;;;26.83;16.73;;;;;;;;;;5052618;28;20506;-85
2021/03/08 07:18:29;;;;;;;21.80;15.40;;;;;;;;;;5045242;28;20205;-85
2021/03/08 07:21:14;;;;;;;24.13;15.87;;;;;;;;;;5061570;28;20482;-85
2021/03/08 07:23:41;;;;;;;20.57;15.43;;;;;;;;;;5051950;28;20414;-85
2021/03/08 07:26:07;;;;;;;22.40;15.90;;;;;;;;;;5036441;28;20177;-86
2021/03/08 07:28:33;;;;;;;26.83;16.80;;;;;;;;;;5049374;28;20895;-84
2021/03/08 07:30:59;;;;;;;20.43;14.70;;;;;;;;;;5066498;28;20523;-84
2021/03/08 07:33:25;;;;;;;21.60;15.30;;;;;;;;;;5041409;28;20445;-84
2021/03/08 07:35:53;;;;;;;24.03;16.53;;;;;;;;;;5035982;28;20423;-84
2021/03/08 07:38:35;;;;;;;27.70;16.47;;;;;;;;;;5045702;28;20420;-84
2021/03/08 07:41:28;;;;;;;24.30;17.07;;;;;;;;;;5042134;28;20509;-84
2021/03/08 07:44:06;;;;;;;23.30;15.57;;;;;;;;;;5036181;28;20188;-84
2021/03/08 07:46:34;;;;;;;24.33;15.90;;;;;;;;;;5044237;28;20499;-84
2021/03/08 07:49:01;;;;;;;28.00;16.73;;;;;;;;;;5044109;28;20419;-84
2021/03/08 07:51:27;;;;;;;22.23;16.03;;;;;;;;;;5038034;28;20431;-84
2021/03/08 07:54:11;;;;;;;24.33;17.03;;;;;;;;;;5055590;28;20248;-85
2021/03/08 07:56:38;;;;;;;20.47;15.33;;;;;;;;;;5042106;28;20735;-84
2021/03/08 07:59:04;;;;;;;22.80;15.40;;;;;;;;;;5035493;28;20412;-84
2021/03/08 08:01:31;;;;;;;22.40;15.63;;;;;;;;;;5035270;28;20227;-84
2021/03/08 08:03:57;;;;;;;24.53;16.23;;;;;;;;;;5039709;28;20418;-84
2021/03/08 08:06:24;;;;;;;25.33;17.27;;;;;;;;;;5054257;28;20440;-84
2021/03/08 08:08:51;;;;;;;24.97;17.23;;;;;;;;;;5052347;28;20894;-84
2021/03/08 08:11:19;;;;;;;23.27;15.17;;;;;;;;;;5072227;28;20450;-85
2021/03/08 08:13:47;;;;;;;24.40;17.40;;;;;;;;;;5046350;28;20434;-85
2021/03/08 08:16:14;;;;;;;21.93;15.63;;;;;;;;;;5036230;28;20420;-84
2021/03/08 08:18:44;;;;;;;25.07;16.10;;;;;;;;;;5044867;28;20206;-84
2021/03/08 08:21:12;;;;;;;22.03;15.87;;;;;;;;;;5041306;28;21014;-84
2021/03/08 08:23:40;;;;;;;25.07;15.87;;;;;;;;;;5049258;28;20229;-84
2021/03/08 08:26:08;;;;;;;24.60;16.07;;;;;;;;;;5042197;28;20173;-84
2021/03/08 08:28:34;;;;;;;20.30;15.23;;;;;;;;;;5050881;28;20185;-84
2021/03/08 08:31:00;;;;;;;23.17;15.97;;;;;;;;;;5043548;28;20486;-84
2021/03/08 08:33:28;;;;;;;23.93;16.27;;;;;;;;;;5050132;28;20227;-84
2021/03/08 08:36:07;;;;;;;22.87;16.20;;;;;;;;;;5052918;28;20204;-84
2021/03/08 08:38:33;;;;;;;24.40;17.23;;;;;;;;;;5071470;28;20228;-84
2021/03/08 08:41:26;;;;;;;23.17;16.33;;;;;;;;;;5047241;28;20459;-84
2021/03/08 08:44:12;;;;;;;23.07;17.43;;;;;;;;;;5053904;28;20909;-84
2021/03/08 08:46:45;;;;;;;22.93;16.03;;;;;;;;;;5049990;28;20470;-84
2021/03/08 08:49:18;;;;;;;21.00;15.80;;;;;;;;;;5055781;28;20217;-84
2021/03/08 08:51:48;;;;;;;24.20;15.77;;;;;;;;;;5056263;28;20937;-84
2021/03/08 08:54:30;;;;;;;23.27;16.10;;;;;;;;;;5056807;28;20427;-84
2021/03/08 08:57:02;;;;;;;26.70;17.23;;;;;;;;;;5074634;28;20180;-84
2021/03/08 08:59:30;;;;;;;23.83;16.07;;;;;;;;;;5074498;28;20765;-84
2021/03/08 09:02:28;;;;;;;22.47;15.37;;;;;;;;;;5047384;28;20288;-84
2021/03/08 09:04:54;;;;;;;25.00;16.77;;;;;;;;;;5053133;28;20641;-84
2021/03/08 09:07:20;;;;;;;23.30;16.10;;;;;;;;;;5054961;28;20445;-84
2021/03/08 09:09:46;;;;;;;24.73;17.37;;;;;;;;;;5056069;28;20430;-84
2021/03/08 09:12:25;;;;;;;25.67;17.10;;;;;;;;;;5056050;28;20249;-84
2021/03/08 09:14:59;;;;;;;26.80;16.70;;;;;;;;;;5056234;28;20842;-84
2021/03/08 09:17:29;;;;;;;24.90;16.30;;;;;;;;;;5056961;28;20265;-84
2021/03/08 09:19:55;;;;;;;22.10;15.67;;;;;;;;;;5056447;28;20505;-84
2021/03/08 09:22:21;;;;;;;22.30;15.77;;;;;;;;;;5055989;28;20210;-84
2021/03/08 09:24:48;;;;;;;23.47;16.67;;;;;;;;;;5055706;28;20423;-84
2021/03/08 09:27:25;;;;;;;25.37;17.03;;;;;;;;;;5055419;28;20176;-84
2021/03/08 09:29:51;;;;;;;23.10;15.93;;;;;;;;;;5055578;28;20426;-84
2021/03/08 09:32:17;;;;;;;26.47;16.60;;;;;;;;;;5050778;28;20423;-84
2021/03/08 09:34:43;;;;;;;24.07;16.57;;;;;;;;;;5055731;28;20415;-84
2021/03/08 09:37:10;;;;;;;22.77;15.33;;;;;;;;;;5054989;28;20230;-84
2021/03/08 09:39:52;;;;;;;21.57;15.97;;;;;;;;;;5055278;28;20181;-84
2021/03/08 09:42:18;;;;;;;23.27;17.03;;;;;;;;;;5073365;28;20465;-84
2021/03/08 09:44:48;;;;;;;23.90;16.23;;;;;;;;;;5055340;28;20215;-84
2021/03/08 09:47:14;;;;;;;24.27;16.27;;;;;;;;;;5056525;28;20179;-84
2021/03/08 09:49:54;;;;;;;23.63;16.37;;;;;;;;;;5072192;28;20691;-84
2021/03/08 09:52:36;;;;;;;19.90;14.87;;;;;;;;;;5054671;28;20180;-84
2021/03/08 09:55:07;;;;;;;25.27;16.43;;;;;;;;;;5054797;28;20187;-84
2021/03/08 09:57:34;;;;;;;23.87;17.37;;;;;;;;;;5073166;28;20427;-84
2021/03/08 10:00:01;;;;;;;22.87;15.80;;;;;;;;;;5055253;28;20180;-84
2021/03/08 10:02:27;;;;;;;25.57;16.73;;;;;;;;;;5050565;28;20203;-84
2021/03/08 10:04:54;;;;;;;24.97;16.57;;;;;;;;;;5054741;28;20180;-84
2021/03/08 10:07:20;;;;;;;25.83;17.57;;;;;;;;;;5055336;28;20249;-84
2021/03/08 10:09:46;;;;;;;28.17;17.73;;;;;;;;;;5041734;28;20204;-84
2021/03/08 10:12:12;;;;;;;26.97;17.50;;;;;;;;;;5050429;28;20696;-84
2021/03/08 10:14:38;;;;;;;27.30;17.13;;;;;;;;;;5068737;28;20411;-84
2021/03/08 10:17:05;;;;;;;23.37;16.83;;;;;;;;;;5048067;28;20266;-85
2021/03/08 10:19:31;;;;;;;28.20;18.47;;;;;;;;;;5044812;28;20427;-84
2021/03/08 10:21:57;;;;;;;25.73;17.60;;;;;;;;;;5034561;28;20201;-84
2021/03/08 10:24:33;;;;;;;25.80;17.97;;;;;;;;;;5046735;28;20173;-84
2021/03/08 10:27:00;;;;;;;28.00;18.33;;;;;;;;;;5054586;28;20290;-84
2021/03/08 10:29:26;;;;;;;26.70;17.80;;;;;;;;;;5053648;28;20197;-84
2021/03/08 10:31:53;;;;;;;26.13;19.03;;;;;;;;;;5040587;28;20543;-84
2021/03/08 10:34:19;;;;;;;28.33;18.17;;;;;;;;;;5034649;28;20180;-84
2021/03/08 10:36:47;;;;;;;27.07;19.20;;;;;;;;;;5035507;28;20207;-84
2021/03/08 10:39:14;;;;;;;28.27;18.60;;;;;;;;;;5043996;28;20506;-84
2021/03/08 10:41:43;;;;;;;30.93;19.00;;;;;;;;;;5055657;28;20637;-84
2021/03/08 10:44:10;;;;;;;29.13;18.90;;;;;;;;;;5051470;28;20181;-84
2021/03/08 10:46:37;;;;;;;31.23;19.20;;;;;;;;;;5036118;28;20172;-84
2021/03/08 10:49:05;;;;;;;31.67;22.07;;;;;;;;;;5052749;28;20183;-84
2021/03/08 10:51:34;;;;;;;29.67;20.37;;;;;;;;;;5036268;28;20177;-84
2021/03/08 10:54:02;;;;;;;28.07;19.00;;;;;;;;;;5043213;28;20181;-84
2021/03/08 10:56:28;;;;;;;28.93;19.87;;;;;;;;;;5073738;28;20501;-84
2021/03/08 10:58:55;;;;;;;31.13;20.90;;;;;;;;;;5073435;28;20403;-84
2021/03/08 11:01:21;;;;;;;32.60;19.70;;;;;;;;;;5045726;28;20795;-84
2021/03/08 11:03:48;;;;;;;32.57;20.93;;;;;;;;;;5036777;28;20231;-84
2021/03/08 11:06:15;;;;;;;30.93;20.97;;;;;;;;;;5050780;28;20411;-84
2021/03/08 11:08:42;;;;;;;32.37;21.10;;;;;;;;;;5048250;28;20181;-84
2021/03/08 11:11:17;;;;;;;31.97;21.13;;;;;;;;;;5055603;28;20209;-84
2021/03/08 11:13:44;;;;;;;34.23;20.87;;;;;;;;;;5052433;28;20192;-84
2021/03/08 11:16:11;;;;;;;31.50;21.10;;;;;;;;;;5050692;28;20187;-84
2021/03/08 11:18:37;;;;;;;34.03;22.63;;;;;;;;;;5057591;28;20176;-85
2021/03/08 11:21:23;;;;;;;38.07;23.33;;;;;;;;;;5060421;28;20274;-84
2021/03/08 11:23:50;;;;;;;34.97;21.43;;;;;;;;;;5077594;28;20718;-84
2021/03/08 11:26:16;;;;;;;39.03;23.43;;;;;;;;;;5056514;28;20211;-84
2021/03/08 11:28:43;;;;;;;36.77;23.47;;;;;;;;;;5070827;28;20234;-85
2021/03/08 11:31:21;;;;;;;37.20;22.63;;;;;;;;;;5044685;28;20187;-84
2021/03/08 11:33:48;;;;;;;36.17;21.33;;;;;;;;;;5055756;28;20202;-84
2021/03/08 11:36:14;;;;;;;31.73;22.03;;;;;;;;;;5047939;28;20188;-84
2021/03/08 11:38:48;;;;;;;35.83;22.73;;;;;;;;;;5037529;28;20173;-84
2021/03/08 11:41:15;;;;;;;36.77;22.77;;;;;;;;;;5052035;28;20196;-84
2021/03/08 11:43:41;;;;;;;40.40;23.47;;;;;;;;;;5052176;28;20177;-84
2021/03/08 11:46:07;;;;;;;39.70;25.43;;;;;;;;;;5043712;28;20200;-84
2021/03/08 11:48:33;;;;;;;39.50;24.30;;;;;;;;;;5035923;28;20173;-84
2021/03/08 11:50:59;;;;;;;41.93;24.40;;;;;;;;;;5048161;28;20220;-84
2021/03/08 11:53:25;;;;;;;42.57;26.30;;;;;;;;;;5051363;28;20177;-84
2021/03/08 11:55:51;;;;;;;42.20;25.00;;;;;;;;;;5051481;28;20176;-84
2021/03/08 11:58:20;;;;;;;41.07;26.33;;;;;;;;;;5051322;28;20639;-85
2021/03/08 12:00:46;;;;;;;46.13;26.53;;;;;;;;;;5052663;28;20177;-84
2021/03/08 12:03:12;;;;;;;44.70;26.40;;;;;;;;;;5050929;28;20559;-84
2021/03/08 12:05:38;;;;;;;45.27;26.93;;;;;;;;;;5049085;28;20243;-84
2021/03/08 12:08:07;;;;;;;40.87;25.77;;;;;;;;;;5035715;28;20206;-84
2021/03/08 12:10:33;;;;;;;46.57;27.77;;;;;;;;;;5049040;28;20201;-84
2021/03/08 12:12:59;;;;;;;46.90;28.47;;;;;;;;;;5050042;28;20180;-84
2021/03/08 12:15:25;;;;;;;43.43;27.27;;;;;;;;;;5050057;28;20169;-84
2021/03/08 12:17:51;;;;;;;46.00;28.00;;;;;;;;;;5049829;28;20174;-84
2021/03/08 12:20:17;;;;;;;44.37;25.57;;;;;;;;;;5053418;28;20628;-84
2021/03/08 12:22:43;;;;;;;49.13;27.33;;;;;;;;;;5054588;28;20640;-84
2021/03/08 12:25:09;;;;;;;46.47;27.87;;;;;;;;;;5052716;28;20181;-84
2021/03/08 12:27:36;;;;;;;44.50;26.00;;;;;;;;;;5054069;28;20181;-84
2021/03/08 12:30:02;;;;;;;47.93;27.43;;;;;;;;;;5053055;28;20515;-84
2021/03/08 12:32:28;;;;;;;45.90;26.33;;;;;;;;;;5053620;28;20188;-84
2021/03/08 12:34:54;;;;;;;45.20;27.70;;;;;;;;;;5054131;28;20169;-84
2021/03/08 12:37:20;;;;;;;48.20;28.80;;;;;;;;;;5053518;28;20616;-84
2021/03/08 12:39:46;;;;;;;44.40;27.87;;;;;;;;;;5054555;28;20185;-84
2021/03/08 12:42:12;;;;;;;39.93;25.00;;;;;;;;;;5054147;28;20201;-84
2021/03/08 12:44:38;;;;;;;40.80;26.83;;;;;;;;;;5054745;28;20189;-83
2021/03/08 12:47:04;;;;;;;44.60;26.87;;;;;;;;;;5050848;28;20208;-83
2021/03/08 12:49:30;;;;;;;39.03;26.23;;;;;;;;;;5043810;28;20358;-84
2021/03/08 12:51:56;;;;;;;42.03;26.00;;;;;;;;;;5030045;28;20189;-84
2021/03/08 12:54:23;;;;;;;41.40;26.10;;;;;;;;;;5028546;28;20177;-84
2021/03/08 12:56:49;;;;;;;38.90;23.53;;;;;;;;;;5035857;28;20259;-83
2021/03/08 12:59:15;;;;;;;43.57;25.93;;;;;;;;;;5045025;28;20640;-84
2021/03/08 13:01:41;;;;;;;39.73;25.27;;;;;;;;;;5033093;28;20578;-84
2021/03/08 13:04:07;;;;;;;34.00;22.23;;;;;;;;;;5033675;28;20177;-84
2021/03/08 13:06:33;;;;;;;37.00;24.10;;;;;;;;;;5032045;28;20548;-84
2021/03/08 13:08:59;;;;;;;40.63;24.40;;;;;;;;;;5054254;28;20189;-84
2021/03/08 13:11:25;;;;;;;33.43;23.13;;;;;;;;;;5033497;28;20197;-84
2021/03/08 13:13:51;;;;;;;37.07;24.33;;;;;;;;;;5021328;28;20188;-84
2021/03/08 13:16:17;;;;;;;35.03;22.93;;;;;;;;;;5045284;28;20181;-84
2021/03/08 13:18:43;;;;;;;36.60;22.40;;;;;;;;;;5025944;28;20652;-84
2021/03/08 13:21:09;;;;;;;36.17;22.47;;;;;;;;;;5039973;28;20240;-84
2021/03/08 13:23:35;;;;;;;32.07;20.77;;;;;;;;;;5045429;28;20188;-84
2021/03/08 13:26:01;;;;;;;32.33;21.87;;;;;;;;;;5036926;28;20256;-84
2021/03/08 13:28:27;;;;;;;31.10;22.93;;;;;;;;;;5032513;28;20178;-84
2021/03/08 13:30:53;;;;;;;35.13;22.90;;;;;;;;;;5033822;28;20315;-84
2021/03/08 13:33:19;;;;;;;34.53;20.93;;;;;;;;;;5046186;28;20509;-85
2021/03/08 13:35:45;;;;;;;35.33;22.37;;;;;;;;;;5028946;28;20185;-82
2021/03/08 13:38:11;;;;;;;32.83;22.27;;;;;;;;;;5044207;28;20169;-83
2021/03/08 13:40:38;;;;;;;33.07;21.83;;;;;;;;;;5035440;28;20179;-83
2021/03/08 13:43:04;;;;;;;31.63;21.47;;;;;;;;;;5032317;28;20205;-85
2021/03/08 13:45:30;;;;;;;29.07;20.03;;;;;;;;;;5028596;28;20515;-85
2021/03/08 13:47:56;;;;;;;27.73;19.53;;;;;;;;;;5031264;28;20174;-85
2021/03/08 13:50:22;;;;;;;30.67;20.50;;;;;;;;;;5030866;28;20658;-85
2021/03/08 13:52:48;;;;;;;31.17;21.50;;;;;;;;;;5032419;28;20213;-85
2021/03/08 13:55:14;;;;;;;29.27;20.50;;;;;;;;;;5029403;28;20181;-85
2021/03/08 13:57:40;;;;;;;31.50;20.87;;;;;;;;;;5053548;28;20185;-85
2021/03/08 14:00:08;;;;;;;31.63;21.10;;;;;;;;;;5030975;28;20216;-85
2021/03/08 14:02:35;;;;;;;31.60;21.43;;;;;;;;;;5032276;28;20205;-85
2021/03/08 14:05:01;;;;;;;30.30;20.20;;;;;;;;;;5046290;28;20243;-85
2021/03/08 14:07:27;;;;;;;31.13;20.37;;;;;;;;;;5032391;28;20591;-85
2021/03/08 14:09:53;;;;;;;27.33;18.97;;;;;;;;;;5034712;28;20527;-85
2021/03/08 14:12:19;;;;;;;27.80;19.10;;;;;;;;;;5034580;28;20640;-85
2021/03/08 14:14:46;;;;;;;27.57;19.63;;;;;;;;;;5032008;28;20197;-85
2021/03/08 14:17:12;;;;;;;31.83;21.57;;;;;;;;;;5031200;28;20268;-85
2021/03/08 14:19:38;;;;;;;28.50;18.47;;;;;;;;;;5028917;28;20191;-85
2021/03/08 14:22:04;;;;;;;27.80;19.47;;;;;;;;;;5054059;28;20205;-85
2021/03/08 14:24:31;;;;;;;25.90;18.40;;;;;;;;;;5033519;28;20173;-83
2021/03/08 14:26:57;;;;;;;27.70;18.83;;;;;;;;;;5038081;28;20204;-85
2021/03/08 14:29:23;;;;;;;28.53;20.63;;;;;;;;;;5035553;28;20540;-85
2021/03/08 14:31:49;;;;;;;24.97;17.90;;;;;;;;;;5032725;28;20260;-85